sensor_id;sensor_type;location;lat;lon;timestamp;P1;durP1;ratioP1;P2;durP2;ratioP2
8757;SDS011;4415;42.152;24.744;2023-07-13T00:00:33;12.05;;;10.85;;
8757;SDS011;4415;42.152;24.744;2023-07-13T00:02:58;13.27;;;11.65;;
8757;SDS011;4415;42.152;24.744;2023-07-13T00:05:23;13.40;;;11.80;;
8757;SDS011;4415;42.152;24.744;2023-07-13T00:07:49;13.07;;;11.77;;
8757;SDS011;4415;42.152;24.744;2023-07-13T00:10:16;13.15;;;12.05;;
8757;SDS011;4415;42.152;24.744;2023-07-13T00:12:42;12.32;;;11.23;;
8757;SDS011;4415;42.152;24.744;2023-07-13T00:15:10;13.73;;;11.68;;
8757;SDS011;4415;42.152;24.744;2023-07-13T00:17:38;13.25;;;11.95;;
8757;SDS011;4415;42.152;24.744;2023-07-13T00:20:04;14.18;;;12.57;;
8757;SDS011;4415;42.152;24.744;2023-07-13T00:22:30;15.13;;;13.52;;
8757;SDS011;4415;42.152;24.744;2023-07-13T00:24:56;14.43;;;12.05;;
8757;SDS011;4415;42.152;24.744;2023-07-13T00:27:22;13.98;;;12.57;;
8757;SDS011;4415;42.152;24.744;2023-07-13T00:29:47;14.02;;;12.07;;
8757;SDS011;4415;42.152;24.744;2023-07-13T00:32:12;13.73;;;12.27;;
8757;SDS011;4415;42.152;24.744;2023-07-13T00:34:38;14.02;;;12.73;;
8757;SDS011;4415;42.152;24.744;2023-07-13T00:37:04;14.70;;;12.50;;
8757;SDS011;4415;42.152;24.744;2023-07-13T00:39:31;13.15;;;11.85;;
8757;SDS011;4415;42.152;24.744;2023-07-13T00:41:57;12.90;;;11.48;;
8757;SDS011;4415;42.152;24.744;2023-07-13T00:44:23;12.40;;;11.30;;
8757;SDS011;4415;42.152;24.744;2023-07-13T00:46:48;11.93;;;10.82;;
8757;SDS011;4415;42.152;24.744;2023-07-13T00:49:15;11.88;;;10.43;;
8757;SDS011;4415;42.152;24.744;2023-07-13T00:51:48;12.40;;;11.02;;
8757;SDS011;4415;42.152;24.744;2023-07-13T00:54:33;12.65;;;11.20;;
8757;SDS011;4415;42.152;24.744;2023-07-13T00:57:03;11.40;;;10.30;;
8757;SDS011;4415;42.152;24.744;2023-07-13T00:59:31;10.88;;;9.73;;
8757;SDS011;4415;42.152;24.744;2023-07-13T01:01:56;11.90;;;10.70;;
8757;SDS011;4415;42.152;24.744;2023-07-13T01:04:25;12.07;;;9.85;;
8757;SDS011;4415;42.152;24.744;2023-07-13T01:06:51;10.68;;;9.52;;
8757;SDS011;4415;42.152;24.744;2023-07-13T01:09:17;13.25;;;9.35;;
8757;SDS011;4415;42.152;24.744;2023-07-13T01:11:43;26.02;;;10.30;;
8757;SDS011;4415;42.152;24.744;2023-07-13T01:14:10;12.75;;;8.80;;
8757;SDS011;4415;42.152;24.744;2023-07-13T01:16:36;9.70;;;8.90;;
8757;SDS011;4415;42.152;24.744;2023-07-13T01:19:03;9.88;;;9.02;;
8757;SDS011;4415;42.152;24.744;2023-07-13T01:21:38;9.82;;;8.90;;
8757;SDS011;4415;42.152;24.744;2023-07-13T01:24:07;9.95;;;9.00;;
8757;SDS011;4415;42.152;24.744;2023-07-13T01:26:33;10.00;;;9.10;;
8757;SDS011;4415;42.152;24.744;2023-07-13T01:28:59;9.50;;;8.70;;
8757;SDS011;4415;42.152;24.744;2023-07-13T01:31:24;11.45;;;9.25;;
8757;SDS011;4415;42.152;24.744;2023-07-13T01:33:49;12.77;;;8.98;;
8757;SDS011;4415;42.152;24.744;2023-07-13T01:36:14;10.40;;;9.52;;
8757;SDS011;4415;42.152;24.744;2023-07-13T01:38:40;9.18;;;8.52;;
8757;SDS011;4415;42.152;24.744;2023-07-13T01:41:06;12.77;;;9.38;;
8757;SDS011;4415;42.152;24.744;2023-07-13T01:43:31;10.15;;;9.10;;
8757;SDS011;4415;42.152;24.744;2023-07-13T01:45:57;10.40;;;9.50;;
8757;SDS011;4415;42.152;24.744;2023-07-13T01:48:23;10.07;;;9.27;;
8757;SDS011;4415;42.152;24.744;2023-07-13T01:50:48;9.70;;;8.80;;
8757;SDS011;4415;42.152;24.744;2023-07-13T01:53:13;11.70;;;9.35;;
8757;SDS011;4415;42.152;24.744;2023-07-13T01:55:39;9.82;;;9.02;;
8757;SDS011;4415;42.152;24.744;2023-07-13T01:58:05;10.63;;;9.20;;
8757;SDS011;4415;42.152;24.744;2023-07-13T02:00:31;9.77;;;8.77;;
8757;SDS011;4415;42.152;24.744;2023-07-13T02:02:57;9.45;;;8.68;;
8757;SDS011;4415;42.152;24.744;2023-07-13T02:05:23;10.48;;;9.52;;
8757;SDS011;4415;42.152;24.744;2023-07-13T02:07:48;10.05;;;9.05;;
8757;SDS011;4415;42.152;24.744;2023-07-13T02:10:14;9.48;;;8.68;;
8757;SDS011;4415;42.152;24.744;2023-07-13T02:12:40;10.93;;;9.52;;
8757;SDS011;4415;42.152;24.744;2023-07-13T02:15:07;9.80;;;8.90;;
8757;SDS011;4415;42.152;24.744;2023-07-13T02:17:34;11.13;;;8.98;;
8757;SDS011;4415;42.152;24.744;2023-07-13T02:20:01;10.50;;;9.30;;
8757;SDS011;4415;42.152;24.744;2023-07-13T02:22:27;9.80;;;8.93;;
8757;SDS011;4415;42.152;24.744;2023-07-13T02:24:52;10.10;;;9.30;;
8757;SDS011;4415;42.152;24.744;2023-07-13T02:27:18;10.38;;;9.38;;
8757;SDS011;4415;42.152;24.744;2023-07-13T02:29:44;9.95;;;9.10;;
8757;SDS011;4415;42.152;24.744;2023-07-13T02:32:09;11.65;;;9.65;;
8757;SDS011;4415;42.152;24.744;2023-07-13T02:34:34;10.68;;;9.35;;
8757;SDS011;4415;42.152;24.744;2023-07-13T02:37:00;10.13;;;9.07;;
8757;SDS011;4415;42.152;24.744;2023-07-13T02:39:25;10.25;;;9.45;;
8757;SDS011;4415;42.152;24.744;2023-07-13T02:41:50;10.02;;;9.15;;
8757;SDS011;4415;42.152;24.744;2023-07-13T02:44:16;10.68;;;9.70;;
8757;SDS011;4415;42.152;24.744;2023-07-13T02:46:41;10.88;;;9.88;;
8757;SDS011;4415;42.152;24.744;2023-07-13T02:49:06;9.93;;;9.07;;
8757;SDS011;4415;42.152;24.744;2023-07-13T02:51:32;10.48;;;9.48;;
8757;SDS011;4415;42.152;24.744;2023-07-13T02:53:59;10.63;;;9.60;;
8757;SDS011;4415;42.152;24.744;2023-07-13T02:56:25;9.52;;;8.77;;
8757;SDS011;4415;42.152;24.744;2023-07-13T02:58:52;11.80;;;9.25;;
8757;SDS011;4415;42.152;24.744;2023-07-13T03:01:19;9.43;;;8.82;;
8757;SDS011;4415;42.152;24.744;2023-07-13T03:03:46;10.25;;;9.20;;
8757;SDS011;4415;42.152;24.744;2023-07-13T03:06:11;11.20;;;9.88;;
8757;SDS011;4415;42.152;24.744;2023-07-13T03:08:38;10.10;;;9.27;;
8757;SDS011;4415;42.152;24.744;2023-07-13T03:11:04;12.07;;;9.57;;
8757;SDS011;4415;42.152;24.744;2023-07-13T03:13:32;12.63;;;9.40;;
8757;SDS011;4415;42.152;24.744;2023-07-13T03:15:57;9.98;;;9.13;;
8757;SDS011;4415;42.152;24.744;2023-07-13T03:18:23;10.95;;;8.77;;
8757;SDS011;4415;42.152;24.744;2023-07-13T03:20:52;9.85;;;9.05;;
8757;SDS011;4415;42.152;24.744;2023-07-13T03:23:17;9.88;;;8.93;;
8757;SDS011;4415;42.152;24.744;2023-07-13T03:25:43;11.57;;;9.05;;
8757;SDS011;4415;42.152;24.744;2023-07-13T03:28:10;9.52;;;8.73;;
8757;SDS011;4415;42.152;24.744;2023-07-13T03:30:36;10.52;;;8.52;;
8757;SDS011;4415;42.152;24.744;2023-07-13T03:33:01;9.60;;;8.70;;
8757;SDS011;4415;42.152;24.744;2023-07-13T03:35:26;10.00;;;9.05;;
8757;SDS011;4415;42.152;24.744;2023-07-13T03:37:52;10.65;;;8.40;;
8757;SDS011;4415;42.152;24.744;2023-07-13T03:40:17;9.38;;;8.48;;
8757;SDS011;4415;42.152;24.744;2023-07-13T03:42:43;9.77;;;8.80;;
8757;SDS011;4415;42.152;24.744;2023-07-13T03:45:08;13.95;;;8.65;;
8757;SDS011;4415;42.152;24.744;2023-07-13T03:47:33;14.50;;;9.20;;
8757;SDS011;4415;42.152;24.744;2023-07-13T03:49:59;9.55;;;8.02;;
8757;SDS011;4415;42.152;24.744;2023-07-13T03:52:24;13.00;;;8.63;;
8757;SDS011;4415;42.152;24.744;2023-07-13T03:54:49;10.50;;;8.90;;
8757;SDS011;4415;42.152;24.744;2023-07-13T03:57:15;10.68;;;8.15;;
8757;SDS011;4415;42.152;24.744;2023-07-13T03:59:40;13.52;;;9.25;;
8757;SDS011;4415;42.152;24.744;2023-07-13T04:02:05;12.65;;;9.15;;
8757;SDS011;4415;42.152;24.744;2023-07-13T04:04:31;10.60;;;8.77;;
8757;SDS011;4415;42.152;24.744;2023-07-13T04:06:59;12.15;;;8.73;;
8757;SDS011;4415;42.152;24.744;2023-07-13T04:09:25;17.00;;;8.95;;
8757;SDS011;4415;42.152;24.744;2023-07-13T04:11:50;9.50;;;8.45;;
8757;SDS011;4415;42.152;24.744;2023-07-13T04:14:16;16.48;;;8.70;;
8757;SDS011;4415;42.152;24.744;2023-07-13T04:16:41;14.35;;;9.52;;
8757;SDS011;4415;42.152;24.744;2023-07-13T04:19:07;19.33;;;10.25;;
8757;SDS011;4415;42.152;24.744;2023-07-13T04:21:35;16.48;;;9.57;;
8757;SDS011;4415;42.152;24.744;2023-07-13T04:24:01;18.10;;;10.63;;
8757;SDS011;4415;42.152;24.744;2023-07-13T04:26:28;12.63;;;10.20;;
8757;SDS011;4415;42.152;24.744;2023-07-13T04:28:54;10.57;;;9.30;;
8757;SDS011;4415;42.152;24.744;2023-07-13T04:31:20;11.63;;;10.50;;
8757;SDS011;4415;42.152;24.744;2023-07-13T04:33:46;11.20;;;10.13;;
8757;SDS011;4415;42.152;24.744;2023-07-13T04:36:12;11.55;;;10.75;;
8757;SDS011;4415;42.152;24.744;2023-07-13T04:38:37;11.77;;;10.73;;
8757;SDS011;4415;42.152;24.744;2023-07-13T04:41:03;11.48;;;10.43;;
8757;SDS011;4415;42.152;24.744;2023-07-13T04:43:31;11.75;;;10.75;;
8757;SDS011;4415;42.152;24.744;2023-07-13T04:46:02;12.05;;;10.90;;
8757;SDS011;4415;42.152;24.744;2023-07-13T04:48:30;12.63;;;11.50;;
8757;SDS011;4415;42.152;24.744;2023-07-13T04:50:56;11.95;;;10.93;;
8757;SDS011;4415;42.152;24.744;2023-07-13T04:53:22;13.10;;;11.88;;
8757;SDS011;4415;42.152;24.744;2023-07-13T04:55:48;12.48;;;11.35;;
8757;SDS011;4415;42.152;24.744;2023-07-13T04:58:13;13.98;;;12.23;;
8757;SDS011;4415;42.152;24.744;2023-07-13T05:00:39;17.98;;;12.30;;
8757;SDS011;4415;42.152;24.744;2023-07-13T05:03:04;12.90;;;11.75;;
8757;SDS011;4415;42.152;24.744;2023-07-13T05:05:30;17.88;;;11.75;;
8757;SDS011;4415;42.152;24.744;2023-07-13T05:07:56;13.02;;;11.52;;
8757;SDS011;4415;42.152;24.744;2023-07-13T05:10:22;12.23;;;11.00;;
8757;SDS011;4415;42.152;24.744;2023-07-13T05:12:48;12.43;;;11.27;;
8757;SDS011;4415;42.152;24.744;2023-07-13T05:15:14;17.38;;;11.88;;
8757;SDS011;4415;42.152;24.744;2023-07-13T05:17:39;13.55;;;12.00;;
8757;SDS011;4415;42.152;24.744;2023-07-13T05:20:05;13.07;;;11.80;;
8757;SDS011;4415;42.152;24.744;2023-07-13T05:22:32;13.13;;;11.80;;
8757;SDS011;4415;42.152;24.744;2023-07-13T05:24:57;16.42;;;13.32;;
8757;SDS011;4415;42.152;24.744;2023-07-13T05:27:23;19.33;;;13.32;;
8757;SDS011;4415;42.152;24.744;2023-07-13T05:29:48;12.80;;;11.77;;
8757;SDS011;4415;42.152;24.744;2023-07-13T05:32:14;15.57;;;12.30;;
8757;SDS011;4415;42.152;24.744;2023-07-13T05:34:39;13.57;;;12.18;;
8757;SDS011;4415;42.152;24.744;2023-07-13T05:37:05;13.82;;;12.40;;
8757;SDS011;4415;42.152;24.744;2023-07-13T05:39:30;14.80;;;11.93;;
8757;SDS011;4415;42.152;24.744;2023-07-13T05:41:56;12.77;;;11.68;;
8757;SDS011;4415;42.152;24.744;2023-07-13T05:44:21;12.13;;;10.98;;
8757;SDS011;4415;42.152;24.744;2023-07-13T05:46:47;16.35;;;11.80;;
8757;SDS011;4415;42.152;24.744;2023-07-13T05:49:12;17.52;;;12.40;;
8757;SDS011;4415;42.152;24.744;2023-07-13T05:51:38;12.20;;;11.10;;
8757;SDS011;4415;42.152;24.744;2023-07-13T05:54:03;14.07;;;11.75;;
8757;SDS011;4415;42.152;24.744;2023-07-13T05:56:29;13.18;;;11.85;;
8757;SDS011;4415;42.152;24.744;2023-07-13T05:58:55;12.70;;;11.45;;
8757;SDS011;4415;42.152;24.744;2023-07-13T06:01:21;16.13;;;11.55;;
8757;SDS011;4415;42.152;24.744;2023-07-13T06:03:48;13.75;;;11.32;;
8757;SDS011;4415;42.152;24.744;2023-07-13T06:06:15;12.25;;;11.05;;
8757;SDS011;4415;42.152;24.744;2023-07-13T06:08:41;14.73;;;11.05;;
8757;SDS011;4415;42.152;24.744;2023-07-13T06:11:10;14.40;;;11.13;;
8757;SDS011;4415;42.152;24.744;2023-07-13T06:13:37;11.88;;;10.57;;
8757;SDS011;4415;42.152;24.744;2023-07-13T06:16:02;18.35;;;11.13;;
8757;SDS011;4415;42.152;24.744;2023-07-13T06:18:35;15.48;;;11.90;;
8757;SDS011;4415;42.152;24.744;2023-07-13T06:21:08;13.38;;;11.75;;
8757;SDS011;4415;42.152;24.744;2023-07-13T06:23:40;12.32;;;11.18;;
8757;SDS011;4415;42.152;24.744;2023-07-13T06:26:07;13.45;;;11.65;;
8757;SDS011;4415;42.152;24.744;2023-07-13T06:28:33;13.10;;;11.80;;
8757;SDS011;4415;42.152;24.744;2023-07-13T06:30:59;13.20;;;11.32;;
8757;SDS011;4415;42.152;24.744;2023-07-13T06:33:25;13.82;;;10.90;;
8757;SDS011;4415;42.152;24.744;2023-07-13T06:35:51;12.05;;;11.02;;
8757;SDS011;4415;42.152;24.744;2023-07-13T06:38:17;11.35;;;10.27;;
8757;SDS011;4415;42.152;24.744;2023-07-13T06:40:43;11.00;;;10.05;;
8757;SDS011;4415;42.152;24.744;2023-07-13T06:43:08;11.65;;;10.48;;
8757;SDS011;4415;42.152;24.744;2023-07-13T06:45:43;11.73;;;10.30;;
8757;SDS011;4415;42.152;24.744;2023-07-13T06:48:15;12.45;;;11.43;;
8757;SDS011;4415;42.152;24.744;2023-07-13T06:50:42;11.63;;;10.63;;
8757;SDS011;4415;42.152;24.744;2023-07-13T06:53:08;11.10;;;10.30;;
8757;SDS011;4415;42.152;24.744;2023-07-13T06:55:35;11.48;;;10.52;;
8757;SDS011;4415;42.152;24.744;2023-07-13T06:58:00;10.60;;;9.90;;
8757;SDS011;4415;42.152;24.744;2023-07-13T07:00:25;10.98;;;10.13;;
8757;SDS011;4415;42.152;24.744;2023-07-13T07:02:51;10.75;;;9.95;;
8757;SDS011;4415;42.152;24.744;2023-07-13T07:05:16;11.38;;;10.27;;
8757;SDS011;4415;42.152;24.744;2023-07-13T07:07:42;11.52;;;10.23;;
8757;SDS011;4415;42.152;24.744;2023-07-13T07:10:08;13.45;;;10.68;;
8757;SDS011;4415;42.152;24.744;2023-07-13T07:12:33;11.38;;;10.27;;
8757;SDS011;4415;42.152;24.744;2023-07-13T07:14:59;11.85;;;10.82;;
8757;SDS011;4415;42.152;24.744;2023-07-13T07:17:24;11.30;;;10.40;;
8757;SDS011;4415;42.152;24.744;2023-07-13T07:19:51;11.90;;;10.75;;
8757;SDS011;4415;42.152;24.744;2023-07-13T07:22:19;12.13;;;10.98;;
8757;SDS011;4415;42.152;24.744;2023-07-13T07:24:46;12.05;;;11.23;;
8757;SDS011;4415;42.152;24.744;2023-07-13T07:27:11;12.45;;;11.25;;
8757;SDS011;4415;42.152;24.744;2023-07-13T07:29:37;12.02;;;10.70;;
8757;SDS011;4415;42.152;24.744;2023-07-13T07:32:02;12.82;;;11.50;;
8757;SDS011;4415;42.152;24.744;2023-07-13T07:34:28;13.75;;;11.50;;
8757;SDS011;4415;42.152;24.744;2023-07-13T07:36:53;11.65;;;10.65;;
8757;SDS011;4415;42.152;24.744;2023-07-13T07:39:19;14.45;;;13.07;;
8757;SDS011;4415;42.152;24.744;2023-07-13T07:41:44;12.57;;;11.57;;
8757;SDS011;4415;42.152;24.744;2023-07-13T07:44:10;12.23;;;11.05;;
8757;SDS011;4415;42.152;24.744;2023-07-13T07:46:35;11.30;;;10.48;;
8757;SDS011;4415;42.152;24.744;2023-07-13T07:49:01;17.35;;;13.32;;
8757;SDS011;4415;42.152;24.744;2023-07-13T07:51:28;12.60;;;10.65;;
8757;SDS011;4415;42.152;24.744;2023-07-13T07:53:53;11.23;;;10.43;;
8757;SDS011;4415;42.152;24.744;2023-07-13T07:56:19;11.90;;;10.77;;
8757;SDS011;4415;42.152;24.744;2023-07-13T07:58:44;11.88;;;10.77;;
8757;SDS011;4415;42.152;24.744;2023-07-13T08:01:10;10.50;;;9.70;;
8757;SDS011;4415;42.152;24.744;2023-07-13T08:03:35;11.55;;;10.50;;
8757;SDS011;4415;42.152;24.744;2023-07-13T08:06:00;10.82;;;9.98;;
8757;SDS011;4415;42.152;24.744;2023-07-13T08:08:26;12.18;;;10.93;;
8757;SDS011;4415;42.152;24.744;2023-07-13T08:10:52;11.32;;;10.50;;
8757;SDS011;4415;42.152;24.744;2023-07-13T08:13:17;12.50;;;11.10;;
8757;SDS011;4415;42.152;24.744;2023-07-13T08:15:43;14.05;;;10.45;;
8757;SDS011;4415;42.152;24.744;2023-07-13T08:18:08;10.57;;;9.68;;
8757;SDS011;4415;42.152;24.744;2023-07-13T08:20:40;11.75;;;10.63;;
8757;SDS011;4415;42.152;24.744;2023-07-13T08:23:06;10.95;;;9.95;;
8757;SDS011;4415;42.152;24.744;2023-07-13T08:25:34;11.77;;;10.85;;
8757;SDS011;4415;42.152;24.744;2023-07-13T08:28:00;11.75;;;10.85;;
8757;SDS011;4415;42.152;24.744;2023-07-13T08:30:25;11.88;;;10.75;;
8757;SDS011;4415;42.152;24.744;2023-07-13T08:32:51;12.77;;;10.55;;
8757;SDS011;4415;42.152;24.744;2023-07-13T08:35:17;11.32;;;10.38;;
8757;SDS011;4415;42.152;24.744;2023-07-13T08:37:42;12.65;;;11.35;;
8757;SDS011;4415;42.152;24.744;2023-07-13T08:40:08;17.42;;;11.25;;
8757;SDS011;4415;42.152;24.744;2023-07-13T08:42:46;13.15;;;10.57;;
8757;SDS011;4415;42.152;24.744;2023-07-13T08:45:22;15.63;;;10.77;;
8757;SDS011;4415;42.152;24.744;2023-07-13T08:47:50;11.23;;;10.15;;
8757;SDS011;4415;42.152;24.744;2023-07-13T08:50:21;12.80;;;9.98;;
8757;SDS011;4415;42.152;24.744;2023-07-13T08:52:52;10.88;;;9.55;;
8757;SDS011;4415;42.152;24.744;2023-07-13T08:55:24;12.32;;;9.50;;
8757;SDS011;4415;42.152;24.744;2023-07-13T08:57:56;11.00;;;10.20;;
8757;SDS011;4415;42.152;24.744;2023-07-13T09:00:32;15.27;;;10.45;;
8757;SDS011;4415;42.152;24.744;2023-07-13T09:03:03;10.25;;;9.43;;
8757;SDS011;4415;42.152;24.744;2023-07-13T09:05:40;10.32;;;9.40;;
8757;SDS011;4415;42.152;24.744;2023-07-13T09:10:53;11.80;;;9.80;;
8757;SDS011;4415;42.152;24.744;2023-07-13T09:16:05;10.10;;;9.23;;
8757;SDS011;4415;42.152;24.744;2023-07-13T09:18:32;10.30;;;9.25;;
8757;SDS011;4415;42.152;24.744;2023-07-13T09:21:05;12.90;;;10.43;;
8757;SDS011;4415;42.152;24.744;2023-07-13T09:23:36;12.93;;;9.70;;
8757;SDS011;4415;42.152;24.744;2023-07-13T09:26:06;8.95;;;8.07;;
8757;SDS011;4415;42.152;24.744;2023-07-13T09:28:38;11.88;;;8.73;;
8757;SDS011;4415;42.152;24.744;2023-07-13T09:33:43;8.88;;;8.18;;
8757;SDS011;4415;42.152;24.744;2023-07-13T09:36:29;9.68;;;8.80;;
8757;SDS011;4415;42.152;24.744;2023-07-13T09:44:35;8.55;;;7.97;;
8757;SDS011;4415;42.152;24.744;2023-07-13T09:47:03;9.93;;;9.00;;
8757;SDS011;4415;42.152;24.744;2023-07-13T09:49:40;9.43;;;8.38;;
8757;SDS011;4415;42.152;24.744;2023-07-13T09:52:06;9.65;;;8.75;;
8757;SDS011;4415;42.152;24.744;2023-07-13T09:54:36;8.80;;;8.10;;
8757;SDS011;4415;42.152;24.744;2023-07-13T09:57:02;9.38;;;8.57;;
8757;SDS011;4415;42.152;24.744;2023-07-13T09:59:41;10.50;;;8.15;;
8757;SDS011;4415;42.152;24.744;2023-07-13T10:05:13;8.77;;;7.55;;
8757;SDS011;4415;42.152;24.744;2023-07-13T10:07:42;8.43;;;7.88;;
8757;SDS011;4415;42.152;24.744;2023-07-13T10:10:16;8.73;;;7.90;;
8757;SDS011;4415;42.152;24.744;2023-07-13T10:12:46;8.30;;;7.60;;
8757;SDS011;4415;42.152;24.744;2023-07-13T10:15:19;8.60;;;7.75;;
8757;SDS011;4415;42.152;24.744;2023-07-13T10:17:49;9.48;;;7.88;;
8757;SDS011;4415;42.152;24.744;2023-07-13T10:20:16;8.57;;;7.32;;
8757;SDS011;4415;42.152;24.744;2023-07-13T10:25:16;12.90;;;7.38;;
8757;SDS011;4415;42.152;24.744;2023-07-13T10:27:43;8.25;;;7.03;;
8757;SDS011;4415;42.152;24.744;2023-07-13T10:30:15;8.95;;;7.95;;
8757;SDS011;4415;42.152;24.744;2023-07-13T10:32:45;9.52;;;7.43;;
8757;SDS011;4415;42.152;24.744;2023-07-13T10:35:13;7.60;;;7.00;;
8757;SDS011;4415;42.152;24.744;2023-07-13T10:38:22;8.73;;;6.85;;
8757;SDS011;4415;42.152;24.744;2023-07-13T10:40:35;7.32;;;6.82;;
8757;SDS011;4415;42.152;24.744;2023-07-13T10:43:06;7.65;;;7.05;;
8757;SDS011;4415;42.152;24.744;2023-07-13T10:45:39;7.00;;;6.57;;
8757;SDS011;4415;42.152;24.744;2023-07-13T10:48:05;12.50;;;7.20;;
8757;SDS011;4415;42.152;24.744;2023-07-13T10:50:35;7.53;;;6.75;;
8757;SDS011;4415;42.152;24.744;2023-07-13T10:53:22;7.15;;;6.55;;
8757;SDS011;4415;42.152;24.744;2023-07-13T10:55:55;7.75;;;6.72;;
8757;SDS011;4415;42.152;24.744;2023-07-13T11:03:46;7.70;;;7.10;;
8757;SDS011;4415;42.152;24.744;2023-07-13T11:11:35;7.07;;;6.28;;
8757;SDS011;4415;42.152;24.744;2023-07-13T11:14:03;7.10;;;6.40;;
8757;SDS011;4415;42.152;24.744;2023-07-13T11:16:49;9.23;;;6.05;;
8757;SDS011;4415;42.152;24.744;2023-07-13T11:24:47;7.53;;;5.95;;
8757;SDS011;4415;42.152;24.744;2023-07-13T11:30:07;7.53;;;5.95;;
8757;SDS011;4415;42.152;24.744;2023-07-13T11:32:39;6.55;;;5.88;;
8757;SDS011;4415;42.152;24.744;2023-07-13T11:35:08;6.80;;;6.20;;
8757;SDS011;4415;42.152;24.744;2023-07-13T11:37:41;8.30;;;7.57;;
8757;SDS011;4415;42.152;24.744;2023-07-13T11:40:11;7.85;;;6.30;;
8757;SDS011;4415;42.152;24.744;2023-07-13T11:42:39;8.13;;;6.00;;
8757;SDS011;4415;42.152;24.744;2023-07-13T11:45:12;6.68;;;6.05;;
8757;SDS011;4415;42.152;24.744;2023-07-13T11:47:45;7.07;;;6.30;;
8757;SDS011;4415;42.152;24.744;2023-07-13T11:50:21;6.93;;;6.07;;
8757;SDS011;4415;42.152;24.744;2023-07-13T11:52:48;7.38;;;6.47;;
8757;SDS011;4415;42.152;24.744;2023-07-13T11:55:17;6.60;;;6.05;;
8757;SDS011;4415;42.152;24.744;2023-07-13T11:58:07;9.73;;;6.10;;
8757;SDS011;4415;42.152;24.744;2023-07-13T12:00:31;8.80;;;6.38;;
8757;SDS011;4415;42.152;24.744;2023-07-13T12:02:59;6.85;;;5.93;;
8757;SDS011;4415;42.152;24.744;2023-07-13T12:05:26;7.75;;;6.15;;
8757;SDS011;4415;42.152;24.744;2023-07-13T12:07:52;6.45;;;5.50;;
8757;SDS011;4415;42.152;24.744;2023-07-13T12:10:28;7.03;;;6.10;;
8757;SDS011;4415;42.152;24.744;2023-07-13T12:12:57;7.28;;;5.72;;
8757;SDS011;4415;42.152;24.744;2023-07-13T12:15:30;13.13;;;6.00;;
8757;SDS011;4415;42.152;24.744;2023-07-13T12:18:11;7.68;;;6.07;;
8757;SDS011;4415;42.152;24.744;2023-07-13T12:20:47;9.00;;;5.60;;
8757;SDS011;4415;42.152;24.744;2023-07-13T12:23:24;7.18;;;5.80;;
8757;SDS011;4415;42.152;24.744;2023-07-13T12:25:57;7.97;;;6.53;;
8757;SDS011;4415;42.152;24.744;2023-07-13T12:30:57;11.80;;;6.13;;
8757;SDS011;4415;42.152;24.744;2023-07-13T12:33:26;10.43;;;6.70;;
8757;SDS011;4415;42.152;24.744;2023-07-13T12:35:53;9.70;;;5.68;;
8757;SDS011;4415;42.152;24.744;2023-07-13T12:38:19;11.50;;;6.47;;
8757;SDS011;4415;42.152;24.744;2023-07-13T12:40:48;6.53;;;5.93;;
8757;SDS011;4415;42.152;24.744;2023-07-13T12:43:15;11.80;;;6.50;;
8757;SDS011;4415;42.152;24.744;2023-07-13T12:48:51;9.57;;;6.53;;
8757;SDS011;4415;42.152;24.744;2023-07-13T12:51:21;9.75;;;6.40;;
8757;SDS011;4415;42.152;24.744;2023-07-13T12:53:50;8.57;;;6.30;;
8757;SDS011;4415;42.152;24.744;2023-07-13T12:56:22;8.98;;;6.90;;
8757;SDS011;4415;42.152;24.744;2023-07-13T12:58:56;8.30;;;6.32;;
8757;SDS011;4415;42.152;24.744;2023-07-13T13:01:28;10.20;;;6.70;;
8757;SDS011;4415;42.152;24.744;2023-07-13T13:03:56;9.27;;;6.63;;
8757;SDS011;4415;42.152;24.744;2023-07-13T13:06:29;9.10;;;6.72;;
8757;SDS011;4415;42.152;24.744;2023-07-13T13:08:58;14.20;;;6.93;;
8757;SDS011;4415;42.152;24.744;2023-07-13T13:11:25;9.40;;;6.88;;
8757;SDS011;4415;42.152;24.744;2023-07-13T13:13:52;11.38;;;7.22;;
8757;SDS011;4415;42.152;24.744;2023-07-13T13:18:47;11.45;;;7.00;;
8757;SDS011;4415;42.152;24.744;2023-07-13T13:21:14;11.52;;;7.50;;
8757;SDS011;4415;42.152;24.744;2023-07-13T13:23:40;11.02;;;6.72;;
8757;SDS011;4415;42.152;24.744;2023-07-13T13:26:13;10.10;;;6.90;;
8757;SDS011;4415;42.152;24.744;2023-07-13T13:28:43;9.70;;;6.82;;
8757;SDS011;4415;42.152;24.744;2023-07-13T13:31:09;8.60;;;6.85;;
8757;SDS011;4415;42.152;24.744;2023-07-13T13:33:39;10.38;;;6.78;;
8757;SDS011;4415;42.152;24.744;2023-07-13T13:36:17;8.30;;;7.25;;
8757;SDS011;4415;42.152;24.744;2023-07-13T13:38:45;12.35;;;6.78;;
8757;SDS011;4415;42.152;24.744;2023-07-13T13:41:11;13.82;;;9.43;;
8757;SDS011;4415;42.152;24.744;2023-07-13T13:43:38;12.88;;;7.05;;
8757;SDS011;4415;42.152;24.744;2023-07-13T13:46:05;9.50;;;6.88;;
8757;SDS011;4415;42.152;24.744;2023-07-13T13:48:38;13.15;;;6.85;;
8757;SDS011;4415;42.152;24.744;2023-07-13T13:51:11;8.88;;;7.13;;
8757;SDS011;4415;42.152;24.744;2023-07-13T13:53:37;9.15;;;6.68;;
8757;SDS011;4415;42.152;24.744;2023-07-13T13:56:03;9.13;;;7.25;;
8757;SDS011;4415;42.152;24.744;2023-07-13T13:58:29;11.23;;;6.93;;
8757;SDS011;4415;42.152;24.744;2023-07-13T14:00:55;11.68;;;7.40;;
8757;SDS011;4415;42.152;24.744;2023-07-13T14:03:21;10.82;;;7.03;;
8757;SDS011;4415;42.152;24.744;2023-07-13T14:05:47;9.57;;;7.03;;
8757;SDS011;4415;42.152;24.744;2023-07-13T14:08:14;13.95;;;7.25;;
8757;SDS011;4415;42.152;24.744;2023-07-13T14:10:41;10.07;;;6.80;;
8757;SDS011;4415;42.152;24.744;2023-07-13T14:13:11;10.07;;;6.57;;
8757;SDS011;4415;42.152;24.744;2023-07-13T14:15:48;9.10;;;7.50;;
8757;SDS011;4415;42.152;24.744;2023-07-13T14:18:14;8.70;;;6.57;;
8757;SDS011;4415;42.152;24.744;2023-07-13T14:20:46;13.05;;;7.32;;
8757;SDS011;4415;42.152;24.744;2023-07-13T14:23:12;10.02;;;7.00;;
8757;SDS011;4415;42.152;24.744;2023-07-13T14:25:39;15.15;;;7.57;;
8757;SDS011;4415;42.152;24.744;2023-07-13T14:28:13;13.75;;;8.27;;
8757;SDS011;4415;42.152;24.744;2023-07-13T14:30:40;9.68;;;7.20;;
8757;SDS011;4415;42.152;24.744;2023-07-13T14:33:09;15.23;;;7.03;;
8757;SDS011;4415;42.152;24.744;2023-07-13T14:35:36;11.43;;;7.47;;
8757;SDS011;4415;42.152;24.744;2023-07-13T14:38:02;7.68;;;6.90;;
8757;SDS011;4415;42.152;24.744;2023-07-13T14:40:29;12.65;;;7.10;;
8757;SDS011;4415;42.152;24.744;2023-07-13T14:42:56;9.25;;;7.20;;
8757;SDS011;4415;42.152;24.744;2023-07-13T14:45:22;12.57;;;7.43;;
8757;SDS011;4415;42.152;24.744;2023-07-13T14:47:47;12.93;;;7.32;;
8757;SDS011;4415;42.152;24.744;2023-07-13T14:50:20;11.57;;;7.20;;
8757;SDS011;4415;42.152;24.744;2023-07-13T14:52:49;10.05;;;7.10;;
8757;SDS011;4415;42.152;24.744;2023-07-13T14:55:18;10.45;;;6.93;;
8757;SDS011;4415;42.152;24.744;2023-07-13T14:57:44;8.45;;;7.20;;
8757;SDS011;4415;42.152;24.744;2023-07-13T15:00:18;10.32;;;6.93;;
8757;SDS011;4415;42.152;24.744;2023-07-13T15:02:50;12.05;;;6.93;;
8757;SDS011;4415;42.152;24.744;2023-07-13T15:05:19;12.80;;;7.43;;
8757;SDS011;4415;42.152;24.744;2023-07-13T15:07:48;15.05;;;7.72;;
8757;SDS011;4415;42.152;24.744;2023-07-13T15:10:21;13.00;;;7.40;;
8757;SDS011;4415;42.152;24.744;2023-07-13T15:12:51;9.55;;;7.30;;
8757;SDS011;4415;42.152;24.744;2023-07-13T15:15:17;10.55;;;7.13;;
8757;SDS011;4415;42.152;24.744;2023-07-13T15:17:43;14.27;;;7.97;;
8757;SDS011;4415;42.152;24.744;2023-07-13T15:20:19;13.38;;;7.75;;
8757;SDS011;4415;42.152;24.744;2023-07-13T15:22:56;9.40;;;7.30;;
8757;SDS011;4415;42.152;24.744;2023-07-13T15:25:25;15.63;;;7.30;;
8757;SDS011;4415;42.152;24.744;2023-07-13T15:27:53;15.00;;;7.32;;
8757;SDS011;4415;42.152;24.744;2023-07-13T15:30:20;17.52;;;7.15;;
8757;SDS011;4415;42.152;24.744;2023-07-13T15:32:46;17.45;;;6.65;;
8757;SDS011;4415;42.152;24.744;2023-07-13T15:35:13;12.25;;;6.85;;